Time;durP1;ratioP1;P1;durP2;ratioP2;P2;SDS_P1;SDS_P2;PMS_P1;PMS_P2;Temp;Humidity;BMP_temperature;BMP_pressure;BME280_temperature;BME280_humidity;BME280_pressure;Samples;Min_cycle;Max_cycle;Signal;HPM_P1;HPM_P2
2022/11/14 00:02:04;;;;;;;34.67;20.48;;;8.60;99.90;;;;;;4988313;28;97944;-73
2022/11/14 00:04:49;;;;;;;37.42;21.55;;;8.60;99.90;;;;;;4990956;28;98566;-72
2022/11/14 00:07:35;;;;;;;35.97;22.88;;;8.60;99.90;;;;;;4991265;28;98731;-73
2022/11/14 00:10:20;;;;;;;39.15;21.73;;;8.70;99.90;;;;;;4991693;28;99299;-73
2022/11/14 00:13:06;;;;;;;36.60;22.50;;;8.60;99.90;;;;;;4990219;28;98440;-73
2022/11/14 00:15:55;;;;;;;40.30;23.02;;;8.60;99.90;;;;;;4990742;28;98665;-73
2022/11/14 00:18:40;;;;;;;38.40;22.55;;;8.70;99.90;;;;;;4990654;28;98817;-72
2022/11/14 00:21:25;;;;;;;38.70;23.02;;;8.70;99.90;;;;;;4989905;28;98641;-73
2022/11/14 00:24:11;;;;;;;38.33;23.10;;;8.70;99.90;;;;;;4991116;28;98574;-73
2022/11/14 00:26:57;;;;;;;44.95;25.83;;;8.70;99.90;;;;;;5004752;28;98610;-73
2022/11/14 00:29:42;;;;;;;47.40;27.30;;;8.70;99.90;;;;;;4990186;28;98055;-73
2022/11/14 00:32:28;;;;;;;40.17;24.80;;;8.70;99.90;;;;;;4990576;28;98572;-72
2022/11/14 00:35:13;;;;;;;42.88;24.27;;;8.70;99.90;;;;;;5004805;28;98658;-72
2022/11/14 00:37:58;;;;;;;48.20;29.27;;;8.70;99.90;;;;;;4989737;28;99250;-72
2022/11/14 00:40:44;;;;;;;47.83;26.42;;;8.70;99.90;;;;;;4990678;28;98784;-72
2022/11/14 00:43:30;;;;;;;46.17;26.42;;;8.70;99.90;;;;;;5004424;28;98595;-73
2022/11/14 00:46:15;;;;;;;43.83;25.70;;;8.70;99.90;;;;;;4989826;28;98651;-73
2022/11/14 00:49:01;;;;;;;42.58;25.38;;;8.60;99.90;;;;;;4989417;28;98529;-72
2022/11/14 00:51:46;;;;;;;54.15;30.17;;;8.60;99.90;;;;;;4991273;28;99067;-73
2022/11/14 00:54:32;;;;;;;48.40;28.50;;;8.60;99.90;;;;;;4989711;28;99021;-73
2022/11/14 00:57:17;;;;;;;48.35;27.90;;;8.60;99.90;;;;;;4990622;28;98070;-73
2022/11/14 01:00:04;;;;;;;53.60;30.70;;;8.50;99.90;;;;;;4991206;28;98486;-72
2022/11/14 01:02:50;;;;;;;57.83;31.52;;;8.40;99.90;;;;;;4991221;28;98523;-73
2022/11/14 01:05:43;;;;;;;55.47;31.98;;;8.30;99.90;;;;;;4993285;28;99642;-73
2022/11/14 01:08:29;;;;;;;55.80;29.20;;;8.40;99.90;;;;;;4994933;28;98547;-73
2022/11/14 01:11:18;;;;;;;57.10;32.03;;;8.30;99.90;;;;;;4992978;28;98837;-73
2022/11/14 01:14:07;;;;;;;55.42;31.00;;;8.30;99.90;;;;;;4992463;28;98835;-72
2022/11/14 01:16:53;;;;;;;55.92;30.35;;;8.20;99.90;;;;;;4993523;28;98582;-73
2022/11/14 01:19:39;;;;;;;53.97;30.75;;;8.20;99.90;;;;;;4993257;28;98619;-73
2022/11/14 01:22:24;;;;;;;57.47;32.42;;;8.20;99.90;;;;;;4993846;28;98421;-73
2022/11/14 01:25:10;;;;;;;59.47;32.40;;;8.10;99.90;;;;;;4994259;28;98158;-73
2022/11/14 01:27:55;;;;;;;62.90;32.53;;;8.10;99.90;;;;;;4992130;28;98457;-73
2022/11/14 01:30:41;;;;;;;61.47;33.88;;;8.10;99.90;;;;;;4992682;28;98646;-73
2022/11/14 01:33:26;;;;;;;62.22;35.03;;;8.10;99.90;;;;;;4992517;28;99404;-73
2022/11/14 01:36:11;;;;;;;60.47;33.17;;;8.10;99.90;;;;;;5004978;28;98688;-73
2022/11/14 01:38:57;;;;;;;62.65;32.88;;;8.10;99.90;;;;;;4993289;28;98685;-73
2022/11/14 01:41:43;;;;;;;62.45;36.17;;;8.10;99.90;;;;;;4993262;28;98603;-73
2022/11/14 01:44:51;;;;;;;58.65;33.30;;;8.10;99.90;;;;;;4992206;28;98623;-73
2022/11/14 01:47:36;;;;;;;58.80;31.83;;;8.20;99.90;;;;;;4992290;28;98893;-73
2022/11/14 01:50:21;;;;;;;60.58;33.33;;;8.10;99.90;;;;;;5006807;28;98608;-72
2022/11/14 01:53:07;;;;;;;61.20;32.58;;;8.20;99.90;;;;;;4991635;28;98001;-73
2022/11/14 01:55:56;;;;;;;64.15;33.33;;;8.20;99.90;;;;;;4993473;28;98514;-73
2022/11/14 01:58:45;;;;;;;61.95;33.25;;;8.20;99.90;;;;;;4994210;28;98929;-72
2022/11/14 02:01:34;;;;;;;60.25;32.58;;;8.20;99.90;;;;;;4991690;28;99294;-73
2022/11/14 02:04:26;;;;;;;63.40;35.55;;;8.10;99.90;;;;;;4993132;28;98531;-73
2022/11/14 02:07:12;;;;;;;64.07;33.85;;;8.10;99.90;;;;;;4991436;28;98416;-73
2022/11/14 02:10:00;;;;;;;65.60;37.30;;;8.10;99.90;;;;;;4991107;28;98842;-73
2022/11/14 02:12:47;;;;;;;59.22;31.30;;;8.10;99.90;;;;;;4992117;28;99249;-73
2022/11/14 02:15:32;;;;;;;62.00;34.50;;;8.10;99.90;;;;;;4991722;28;98627;-73
2022/11/14 02:18:17;;;;;;;65.95;34.65;;;8.20;99.90;;;;;;4992358;28;99068;-73
2022/11/14 02:21:03;;;;;;;61.45;31.85;;;8.20;99.90;;;;;;4992197;28;98131;-72
2022/11/14 02:23:48;;;;;;;61.20;32.58;;;8.20;99.90;;;;;;4990208;28;98625;-72
2022/11/14 02:26:34;;;;;;;59.90;35.05;;;8.20;99.90;;;;;;4992105;28;98608;-73
2022/11/14 02:29:21;;;;;;;62.17;36.03;;;8.20;99.90;;;;;;5005754;28;99682;-73
2022/11/14 02:32:07;;;;;;;64.13;32.85;;;8.20;99.90;;;;;;4991146;28;98868;-73
2022/11/14 02:34:55;;;;;;;58.42;30.98;;;8.20;99.90;;;;;;5004651;28;98582;-73
2022/11/14 02:37:40;;;;;;;61.15;33.65;;;8.20;99.90;;;;;;4992984;28;98406;-73
2022/11/14 02:40:26;;;;;;;59.72;31.30;;;8.20;99.90;;;;;;4991033;28;98790;-72
2022/11/14 02:43:11;;;;;;;60.45;32.63;;;8.20;99.90;;;;;;4990546;28;99056;-73
2022/11/14 02:45:57;;;;;;;62.28;36.08;;;8.20;99.90;;;;;;4992698;28;99112;-73
2022/11/14 02:48:48;;;;;;;66.13;35.88;;;8.20;99.90;;;;;;5003638;28;98625;-72
2022/11/14 02:51:34;;;;;;;57.63;31.85;;;8.30;99.90;;;;;;4991920;28;98419;-73
2022/11/14 02:54:19;;;;;;;58.53;32.60;;;8.30;99.90;;;;;;4992392;28;98762;-72
2022/11/14 02:57:04;;;;;;;65.25;35.75;;;8.30;99.90;;;;;;4990331;28;99717;-72
2022/11/14 02:59:50;;;;;;;52.90;28.42;;;8.30;99.90;;;;;;4991565;28;98581;-72
2022/11/14 03:02:35;;;;;;;53.85;28.27;;;8.30;99.90;;;;;;4991328;28;98477;-72
2022/11/14 03:05:21;;;;;;;53.88;31.00;;;8.40;99.90;;;;;;4991657;28;98852;-73
2022/11/14 03:08:06;;;;;;;54.85;31.60;;;8.40;99.90;;;;;;4990883;28;98590;-73
2022/11/14 03:10:52;;;;;;;58.25;32.58;;;8.40;99.90;;;;;;4992456;28;98576;-73
2022/11/14 03:13:37;;;;;;;53.17;31.25;;;8.40;99.90;;;;;;4991981;28;98605;-73
2022/11/14 03:16:23;;;;;;;55.28;31.92;;;8.40;99.90;;;;;;4991290;28;98143;-73
2022/11/14 03:19:08;;;;;;;59.05;35.70;;;8.50;99.90;;;;;;4991965;28;98514;-73
2022/11/14 03:21:54;;;;;;;56.83;31.67;;;8.50;99.90;;;;;;4992136;28;98558;-73
2022/11/14 03:24:39;;;;;;;49.33;30.50;;;8.50;99.90;;;;;;4989773;28;99290;-73
2022/11/14 03:27:25;;;;;;;56.20;35.03;;;8.50;99.90;;;;;;4991108;28;98828;-72
2022/11/14 03:30:11;;;;;;;53.20;31.23;;;8.60;99.90;;;;;;4992398;28;98595;-73
2022/11/14 03:32:56;;;;;;;52.53;31.00;;;8.50;99.90;;;;;;4991215;28;98501;-73
2022/11/14 03:35:43;;;;;;;58.92;37.25;;;8.50;99.90;;;;;;4990684;28;98587;-72
2022/11/14 03:38:29;;;;;;;57.50;33.22;;;8.40;99.90;;;;;;4991087;28;98776;-72
2022/11/14 03:41:14;;;;;;;58.92;32.97;;;8.40;99.90;;;;;;4990374;28;98483;-72
2022/11/14 03:44:00;;;;;;;50.50;26.85;;;8.40;99.90;;;;;;4991813;28;97795;-73
2022/11/14 03:46:45;;;;;;;39.00;23.55;;;8.30;99.90;;;;;;4991304;28;99040;-73
2022/11/14 03:49:30;;;;;;;50.42;30.67;;;8.30;99.90;;;;;;4990081;28;98956;-73
2022/11/14 03:52:16;;;;;;;54.47;32.45;;;8.30;99.90;;;;;;4990773;28;99164;-73
2022/11/14 03:55:02;;;;;;;57.60;36.50;;;8.40;99.90;;;;;;4992050;28;98558;-73
2022/11/14 03:57:47;;;;;;;50.58;31.00;;;8.30;99.90;;;;;;4990134;28;98596;-73
2022/11/14 04:00:32;;;;;;;58.13;33.47;;;8.30;99.90;;;;;;4990835;28;98614;-72
2022/11/14 04:03:18;;;;;;;53.45;31.98;;;8.30;99.90;;;;;;4991008;28;98614;-73
2022/11/14 04:06:03;;;;;;;40.30;26.75;;;8.30;99.90;;;;;;4989053;28;98569;-73
2022/11/14 04:08:50;;;;;;;53.78;34.15;;;8.20;99.90;;;;;;4991344;28;98625;-73
2022/11/14 04:11:36;;;;;;;55.35;33.20;;;8.20;99.90;;;;;;4992057;28;98103;-72
2022/11/14 04:14:21;;;;;;;54.42;33.47;;;8.20;99.90;;;;;;4989725;28;98578;-72
2022/11/14 04:17:07;;;;;;;45.60;26.45;;;8.20;99.90;;;;;;4991066;28;98565;-72
2022/11/14 04:19:52;;;;;;;52.20;32.20;;;8.20;99.90;;;;;;4991609;28;99157;-73
2022/11/14 04:22:38;;;;;;;56.67;36.88;;;8.20;99.90;;;;;;4989383;28;98766;-72
2022/11/14 04:25:24;;;;;;;50.70;29.38;;;8.20;99.90;;;;;;4990605;28;98577;-72
2022/11/14 04:28:09;;;;;;;51.15;30.98;;;8.20;99.90;;;;;;4990336;28;98501;-72
2022/11/14 04:30:54;;;;;;;48.28;28.40;;;8.30;99.90;;;;;;4989841;28;98467;-73
2022/11/14 04:33:40;;;;;;;48.92;26.48;;;8.20;99.90;;;;;;4989851;28;98810;-73
2022/11/14 04:36:25;;;;;;;50.35;30.90;;;8.20;99.90;;;;;;4993149;28;98775;-73
2022/11/14 04:39:11;;;;;;;52.42;30.20;;;8.20;99.90;;;;;;4993715;28;98340;-73
2022/11/14 04:41:56;;;;;;;53.00;30.02;;;8.30;99.90;;;;;;4993064;28;98597;-73
2022/11/14 04:44:42;;;;;;;53.03;31.80;;;8.30;99.90;;;;;;4994368;28;98780;-73
2022/11/14 04:47:27;;;;;;;56.03;32.38;;;8.30;99.90;;;;;;4993591;28;99326;-73
2022/11/14 04:50:13;;;;;;;51.47;31.45;;;8.40;99.90;;;;;;4993783;28;98509;-73
2022/11/14 04:52:58;;;;;;;50.33;30.30;;;8.40;99.90;;;;;;4993669;28;98590;-72
2022/11/14 04:55:44;;;;;;;53.47;33.70;;;8.40;99.90;;;;;;4994719;28;98695;-73
2022/11/14 04:58:30;;;;;;;55.25;32.45;;;8.30;99.90;;;;;;4991939;28;98590;-72
2022/11/14 05:01:16;;;;;;;57.25;31.30;;;8.30;99.90;;;;;;4994447;28;98566;-73
2022/11/14 05:04:02;;;;;;;51.63;29.85;;;8.20;99.90;;;;;;4994670;28;98541;-73
2022/11/14 05:06:47;;;;;;;55.53;34.08;;;8.20;99.90;;;;;;4992094;28;98073;-73
2022/11/14 05:09:33;;;;;;;52.47;29.95;;;8.30;99.90;;;;;;4993124;28;98525;-73
2022/11/14 05:12:18;;;;;;;58.67;33.53;;;8.20;99.90;;;;;;4994323;28;98485;-73
2022/11/14 05:15:04;;;;;;;53.72;31.38;;;8.30;99.90;;;;;;4991545;28;99253;-73
2022/11/14 05:17:49;;;;;;;62.63;33.17;;;8.30;99.90;;;;;;4993306;28;98907;-72
2022/11/14 05:20:34;;;;;;;60.67;38.35;;;8.30;99.90;;;;;;5007029;28;98560;-73
2022/11/14 05:23:22;;;;;;;53.40;30.85;;;8.30;99.90;;;;;;4993052;28;98900;-73
2022/11/14 05:26:10;;;;;;;54.92;33.17;;;8.20;99.90;;;;;;5007007;28;98628;-73
2022/11/14 05:28:55;;;;;;;66.25;40.75;;;8.20;99.90;;;;;;4994567;28;99127;-73
2022/11/14 05:31:41;;;;;;;55.90;31.90;;;8.20;99.90;;;;;;4992385;28;99058;-73
2022/11/14 05:34:27;;;;;;;55.90;30.00;;;8.20;99.90;;;;;;4993863;28;97856;-73
2022/11/14 05:37:12;;;;;;;61.67;34.00;;;8.20;99.90;;;;;;4993633;28;99013;-73
2022/11/14 05:39:58;;;;;;;62.40;34.78;;;8.20;99.90;;;;;;5005114;28;98602;-72
2022/11/14 05:42:43;;;;;;;57.70;33.60;;;8.20;99.90;;;;;;4991850;28;99387;-73
2022/11/14 05:45:30;;;;;;;56.95;30.85;;;8.20;99.90;;;;;;4994487;28;98427;-73
2022/11/14 05:48:15;;;;;;;50.33;30.73;;;8.10;99.90;;;;;;4990469;28;98549;-73
2022/11/14 05:51:03;;;;;;;47.70;26.90;;;8.00;99.90;;;;;;4992674;28;98681;-73
2022/11/14 05:53:49;;;;;;;62.13;33.33;;;7.90;99.90;;;;;;4992494;28;99554;-72
2022/11/14 05:56:34;;;;;;;56.95;31.38;;;7.90;99.90;;;;;;4991003;28;99029;-73
2022/11/14 05:59:20;;;;;;;56.33;30.42;;;7.90;99.90;;;;;;4992309;28;98845;-73
2022/11/14 06:02:06;;;;;;;55.28;30.98;;;7.90;99.90;;;;;;4994101;28;98042;-73
2022/11/14 06:04:51;;;;;;;63.15;34.45;;;8.00;99.90;;;;;;5006279;28;98578;-73
2022/11/14 06:07:37;;;;;;;57.13;32.90;;;8.00;99.90;;;;;;4992728;28;98589;-72
2022/11/14 06:10:24;;;;;;;53.40;29.35;;;8.00;99.90;;;;;;4993544;28;99243;-73
2022/11/14 06:13:09;;;;;;;51.42;26.52;;;7.90;99.90;;;;;;5004286;28;98785;-73
2022/11/14 06:16:02;;;;;;;61.03;33.42;;;7.80;99.90;;;;;;4990974;28;98632;-73
2022/11/14 06:18:51;;;;;;;59.80;30.67;;;7.80;99.90;;;;;;4992620;28;98471;-72
2022/11/14 06:21:36;;;;;;;60.15;31.15;;;7.80;99.90;;;;;;4991916;28;98561;-73
2022/11/14 06:24:21;;;;;;;57.45;29.38;;;7.80;99.90;;;;;;4991348;28;98836;-72
2022/11/14 06:27:07;;;;;;;69.60;34.22;;;7.80;99.90;;;;;;4991798;28;98582;-73
2022/11/14 06:29:52;;;;;;;59.63;33.85;;;7.80;99.90;;;;;;5004645;28;97889;-73
2022/11/14 06:32:38;;;;;;;62.80;34.60;;;7.70;99.90;;;;;;4992321;28;98510;-73
2022/11/14 06:35:24;;;;;;;61.88;33.00;;;7.70;99.90;;;;;;4992039;28;98722;-72
2022/11/14 06:38:09;;;;;;;56.15;29.00;;;7.60;99.90;;;;;;4990656;28;99227;-73
2022/11/14 06:41:09;;;;;;;59.03;29.17;;;7.60;99.90;;;;;;4992308;28;98554;-73
2022/11/14 06:43:55;;;;;;;61.05;33.05;;;7.60;99.90;;;;;;4993271;28;98444;-72
2022/11/14 06:46:40;;;;;;;54.55;29.88;;;7.60;99.90;;;;;;4991353;28;98885;-73
2022/11/14 06:49:26;;;;;;;59.92;31.55;;;7.60;99.90;;;;;;5005225;28;99313;-73
2022/11/14 06:52:12;;;;;;;62.20;32.42;;;7.70;99.90;;;;;;4993511;28;98805;-73
2022/11/14 06:54:57;;;;;;;58.10;31.83;;;7.80;99.90;;;;;;4991271;28;98436;-73
2022/11/14 06:57:43;;;;;;;71.78;41.15;;;7.80;99.90;;;;;;4992226;28;98047;-73
2022/11/14 07:00:28;;;;;;;64.82;33.33;;;7.90;99.90;;;;;;4992196;28;98520;-73
2022/11/14 07:03:14;;;;;;;67.20;36.50;;;7.90;99.90;;;;;;4990906;28;98665;-73
2022/11/14 07:06:00;;;;;;;59.13;32.70;;;7.80;99.90;;;;;;4991474;28;99269;-73
2022/11/14 07:08:46;;;;;;;63.05;35.33;;;7.80;99.90;;;;;;4992042;28;98823;-73
2022/11/14 07:11:33;;;;;;;58.95;34.33;;;7.70;99.90;;;;;;4989616;28;98594;-73
2022/11/14 07:14:19;;;;;;;56.47;31.13;;;7.70;99.90;;;;;;4992069;28;98995;-73
2022/11/14 07:17:04;;;;;;;59.30;32.83;;;7.70;99.90;;;;;;4992553;28;98498;-73
2022/11/14 07:21:20;;;;;;;63.83;34.40;;;7.70;99.90;;;;;;5058108;27;87493;-72
2022/11/14 07:24:06;;;;;;;57.50;32.13;;;7.60;99.90;;;;;;5052141;27;88853;-72
2022/11/14 07:26:51;;;;;;;50.00;28.83;;;7.70;99.90;;;;;;5053234;27;88528;-72
2022/11/14 07:29:37;;;;;;;60.90;33.80;;;7.70;99.90;;;;;;5053932;27;88500;-72
2022/11/14 07:32:22;;;;;;;60.47;32.20;;;7.70;99.90;;;;;;5051335;27;88423;-72
2022/11/14 07:35:08;;;;;;;57.88;32.60;;;7.70;99.90;;;;;;5052302;27;88805;-72
2022/11/14 07:38:01;;;;;;;64.53;33.97;;;7.80;99.90;;;;;;5054054;27;88504;-72
2022/11/14 07:40:54;;;;;;;61.20;32.67;;;7.80;99.90;;;;;;5052314;27;88518;-72
2022/11/14 07:43:44;;;;;;;53.85;30.08;;;7.90;99.90;;;;;;5053092;27;88456;-72
2022/11/14 07:46:29;;;;;;;62.13;33.90;;;7.90;99.90;;;;;;5053228;27;88988;-72
2022/11/14 07:49:15;;;;;;;61.53;35.25;;;7.90;99.90;;;;;;5051111;27;88556;-72
2022/11/14 07:52:00;;;;;;;61.85;33.38;;;8.00;99.90;;;;;;5051960;27;88953;-72
2022/11/14 07:54:46;;;;;;;60.95;33.35;;;8.00;99.90;;;;;;5052966;27;88588;-72
2022/11/14 07:57:31;;;;;;;57.70;33.65;;;8.10;99.90;;;;;;5050552;27;88905;-72
2022/11/14 08:00:22;;;;;;;51.85;28.83;;;8.10;99.90;;;;;;5052369;27;88742;-72
2022/11/14 08:03:08;;;;;;;59.58;31.60;;;8.10;99.90;;;;;;5053739;27;88801;-72
2022/11/14 08:06:09;;;;;;;61.63;41.85;;;8.20;99.90;;;;;;5051854;27;88476;-72
2022/11/14 08:08:54;;;;;;;60.20;32.28;;;8.30;99.90;;;;;;5052231;27;88820;-72
2022/11/14 08:11:48;;;;;;;52.50;32.10;;;8.30;99.90;;;;;;5052935;27;88506;-72
2022/11/14 08:14:34;;;;;;;59.60;35.90;;;8.20;99.90;;;;;;5052391;27;88468;-72
2022/11/14 08:17:20;;;;;;;58.00;33.92;;;8.20;99.90;;;;;;5053242;27;89436;-72
2022/11/14 08:20:07;;;;;;;56.25;31.95;;;8.30;99.90;;;;;;5050195;27;88932;-72
2022/11/14 08:23:04;;;;;;;50.30;30.77;;;8.30;99.90;;;;;;5052316;27;88709;-72
2022/11/14 08:25:49;;;;;;;56.78;33.53;;;8.30;99.90;;;;;;5053334;27;88610;-72
2022/11/14 08:28:35;;;;;;;51.63;31.45;;;8.30;99.90;;;;;;5051151;27;88487;-72
2022/11/14 08:31:21;;;;;;;56.63;30.83;;;8.30;99.90;;;;;;5037923;27;88957;-72
2022/11/14 08:34:06;;;;;;;54.40;31.60;;;8.40;99.90;;;;;;5038398;28;88595;-72
2022/11/14 08:36:52;;;;;;;57.28;31.70;;;8.40;99.90;;;;;;5037802;28;88782;-72
2022/11/14 08:39:37;;;;;;;51.03;32.08;;;8.60;99.90;;;;;;5038183;28;88516;-72
2022/11/14 08:42:23;;;;;;;57.85;31.42;;;8.60;99.90;;;;;;5038853;28;88730;-72
2022/11/14 08:45:08;;;;;;;53.05;33.05;;;8.60;99.90;;;;;;5037291;28;88954;-72
2022/11/14 08:47:54;;;;;;;53.17;29.80;;;8.70;99.90;;;;;;5038052;28;88421;-72
2022/11/14 08:50:39;;;;;;;49.55;28.83;;;8.70;99.90;;;;;;5038380;28;88489;-72
2022/11/14 08:53:25;;;;;;;51.60;30.92;;;8.70;99.90;;;;;;5036797;28;88953;-72
2022/11/14 08:56:11;;;;;;;54.85;32.40;;;8.70;99.90;;;;;;5038098;28;88584;-72
2022/11/14 08:58:56;;;;;;;54.35;32.17;;;8.80;99.90;;;;;;5038091;28;89118;-72
2022/11/14 09:01:42;;;;;;;52.08;30.75;;;8.90;99.90;;;;;;5037331;28;88940;-72
2022/11/14 09:04:27;;;;;;;46.65;28.23;;;9.00;99.90;;;;;;5036717;28;89633;-72
2022/11/14 09:07:13;;;;;;;53.85;32.05;;;9.00;99.90;;;;;;5023581;28;88420;-72
2022/11/14 09:09:58;;;;;;;49.70;29.90;;;9.10;99.90;;;;;;5021765;28;88550;-72
2022/11/14 09:12:44;;;;;;;51.00;31.23;;;9.10;99.90;;;;;;5037920;28;88468;-72
2022/11/14 09:15:30;;;;;;;51.78;30.08;;;9.10;99.90;;;;;;5037183;28;88906;-72
2022/11/14 09:18:15;;;;;;;53.33;32.30;;;9.00;99.90;;;;;;5038589;28;88529;-72
2022/11/14 09:21:02;;;;;;;51.95;31.10;;;8.90;99.90;;;;;;5037680;28;88524;-72
2022/11/14 09:23:47;;;;;;;52.97;32.80;;;8.90;99.90;;;;;;5038588;28;88675;-72
2022/11/14 09:26:33;;;;;;;47.92;30.52;;;8.80;99.90;;;;;;5038827;28;88903;-72
2022/11/14 09:29:19;;;;;;;49.90;31.27;;;8.80;99.90;;;;;;5021638;28;88634;-72
2022/11/14 09:32:05;;;;;;;45.38;28.88;;;8.70;99.90;;;;;;5036711;28;88715;-72
2022/11/14 09:34:50;;;;;;;48.50;29.90;;;8.80;99.90;;;;;;5039094;28;89160;-72
2022/11/14 09:37:35;;;;;;;48.05;31.75;;;8.80;99.90;;;;;;5035816;28;89763;-72
2022/11/14 09:40:21;;;;;;;43.55;28.92;;;8.90;99.90;;;;;;5037599;28;89028;-72
2022/11/14 09:43:16;;;;;;;44.42;28.80;;;8.80;99.90;;;;;;5037684;28;89078;-72
2022/11/14 09:46:02;;;;;;;44.05;29.02;;;8.80;99.90;;;;;;5036972;28;88419;-72
2022/11/14 09:48:48;;;;;;;43.75;27.60;;;8.80;99.90;;;;;;5038110;28;88896;-72
2022/11/14 09:51:44;;;;;;;42.22;26.00;;;8.80;99.90;;;;;;5037353;28;88551;-72
2022/11/14 09:54:45;;;;;;;46.97;29.88;;;8.80;99.90;;;;;;5037038;28;88491;-72
2022/11/14 09:57:30;;;;;;;50.55;31.20;;;8.90;99.90;;;;;;5038073;28;88468;-72
2022/11/14 10:00:33;;;;;;;48.22;30.02;;;8.90;99.90;;;;;;5035900;28;88887;-72
2022/11/14 10:03:37;;;;;;;42.70;27.80;;;8.90;99.90;;;;;;5037768;28;88437;-72
2022/11/14 10:06:25;;;;;;;46.87;29.33;;;8.90;99.90;;;;;;5035955;28;88814;-72
2022/11/14 10:09:55;;;;;;;45.63;28.05;;;8.80;99.90;;;;;;5037014;28;88547;-72
2022/11/14 10:12:56;;;;;;;44.88;29.17;;;8.90;99.90;;;;;;5023760;27;89524;-71
2022/11/14 10:21:56;;;;;;;47.28;30.25;;;8.70;99.90;;;;;;6106437;22;1415619;-72
2022/11/14 10:24:58;;;;;;;45.22;28.20;;;8.80;99.90;;;;;;6142344;22;88423;-71
2022/11/14 10:28:02;;;;;;;44.33;27.50;;;8.80;99.90;;;;;;6165452;22;88965;-71
2022/11/14 10:31:09;;;;;;;43.25;26.77;;;8.80;99.90;;;;;;6143060;22;89054;-72
2022/11/14 10:34:07;;;;;;;44.60;28.55;;;8.80;99.90;;;;;;6142615;22;88848;-71
2022/11/14 10:37:08;;;;;;;44.00;27.55;;;8.80;99.90;;;;;;6165018;22;88398;-72
2022/11/14 10:40:00;;;;;;;41.97;28.13;;;8.80;99.90;;;;;;6142559;22;88572;-72
2022/11/14 10:42:49;;;;;;;38.17;23.35;;;8.80;99.90;;;;;;6165085;22;88416;-72
2022/11/14 10:45:41;;;;;;;170.25;86.15;;;9.00;99.90;;;;;;6164862;22;88893;-72
2022/11/14 10:48:35;;;;;;;327.50;143.95;;;9.00;99.90;;;;;;6164695;22;88540;-72
2022/11/14 10:51:35;;;;;;;379.98;185.15;;;9.10;99.90;;;;;;6163792;22;91083;-72
2022/11/14 10:55:05;;;;;;;164.20;98.40;;;9.20;99.90;;;;;;6141088;22;90798;-71
2022/11/14 10:57:50;;;;;;;73.65;36.72;;;9.20;99.90;;;;;;6164987;22;88915;-72
2022/11/14 11:00:35;;;;;;;148.45;57.78;;;9.10;99.90;;;;;;6142284;22;88447;-72
2022/11/14 11:03:40;;;;;;;114.20;55.08;;;9.20;99.90;;;;;;6164983;22;88471;-72
2022/11/14 11:06:27;;;;;;;70.30;36.53;;;9.20;99.90;;;;;;6142286;22;88583;-72
2022/11/14 11:12:36;;;;;;;54.40;32.58;;;9.30;99.90;;;;;;6155691;22;88586;-72
2022/11/14 11:15:39;;;;;;;405.38;152.85;;;9.40;99.90;;;;;;6104979;23;88447;-71
2022/11/14 11:18:26;;;;;;;140.05;64.22;;;9.50;99.90;;;;;;6103733;23;91788;-72
2022/11/14 11:21:15;;;;;;;38.80;26.85;;;9.60;99.90;;;;;;6104823;23;88872;-72
2022/11/14 11:24:00;;;;;;;38.97;25.15;;;9.70;99.90;;;;;;6083062;23;88855;-72
2022/11/14 11:26:46;;;;;;;60.83;43.10;;;9.70;99.90;;;;;;6104091;23;88353;-71
2022/11/14 11:29:32;;;;;;;34.33;23.80;;;9.80;99.90;;;;;;6098178;23;88342;-71
2022/11/14 11:32:25;;;;;;;37.85;27.98;;;9.80;99.90;;;;;;6098256;23;88897;-72
2022/11/14 11:35:12;;;;;;;37.80;24.98;;;10.00;99.90;;;;;;6076455;23;88443;-72
2022/11/14 11:38:01;;;;;;;39.85;28.63;;;10.00;99.90;;;;;;6076437;23;88509;-72
2022/11/14 11:40:51;;;;;;;33.08;22.73;;;10.00;99.90;;;;;;6076078;23;88536;-71
2022/11/14 11:43:46;;;;;;;36.25;24.17;;;10.10;99.90;;;;;;6098169;23;88802;-72
2022/11/14 11:46:43;;;;;;;38.60;24.40;;;10.10;99.90;;;;;;6097033;23;88591;-72
2022/11/14 11:49:45;;;;;;;43.45;28.02;;;10.20;99.90;;;;;;6076429;23;88572;-72
2022/11/14 11:52:48;;;;;;;34.15;23.40;;;10.10;99.90;;;;;;6097975;23;88430;-71
2022/11/14 11:55:58;;;;;;;40.63;26.35;;;10.20;99.90;;;;;;6097873;23;88840;-72
2022/11/14 11:58:48;;;;;;;39.63;25.05;;;10.20;99.90;;;;;;6075917;23;88764;-71
2022/11/14 12:01:33;;;;;;;37.83;24.40;;;10.30;99.90;;;;;;6098028;23;88511;-72
2022/11/14 12:04:19;;;;;;;34.45;22.90;;;10.30;99.90;;;;;;6055534;23;88360;-72
2022/11/14 12:07:17;;;;;;;34.50;23.40;;;10.40;99.90;;;;;;6098098;23;88875;-72
2022/11/14 12:10:16;;;;;;;36.20;24.63;;;10.50;99.90;;;;;;6098184;23;88417;-71
2022/11/14 12:13:28;;;;;;;36.38;23.23;;;10.50;99.90;;;;;;6098141;23;88451;-72
2022/11/14 12:16:31;;;;;;;38.55;25.23;;;10.50;99.90;;;;;;6096882;23;88429;-72
2022/11/14 12:19:39;;;;;;;34.97;25.45;;;10.50;99.90;;;;;;6097010;23;88847;-72
2022/11/14 12:22:56;;;;;;;38.33;26.63;;;10.50;99.90;;;;;;6037640;23;88570;-72
2022/11/14 12:26:00;;;;;;;32.28;21.80;;;10.60;99.90;;;;;;6097809;23;88410;-72
2022/11/14 12:28:58;;;;;;;34.60;24.38;;;10.50;99.90;;;;;;6098087;23;88875;-71
2022/11/14 12:31:45;;;;;;;38.20;25.75;;;10.50;99.90;;;;;;6075843;23;88974;-72
2022/11/14 12:34:36;;;;;;;34.15;24.23;;;10.50;99.90;;;;;;6076016;23;88501;-72
2022/11/14 12:37:34;;;;;;;35.42;24.17;;;10.50;99.90;;;;;;6097986;23;88449;-72
2022/11/14 12:40:25;;;;;;;36.30;23.30;;;10.70;99.90;;;;;;6097442;23;88418;-71
2022/11/14 12:43:44;;;;;;;44.33;29.90;;;10.70;99.90;;;;;;6075922;23;88879;-72
2022/11/14 12:47:01;;;;;;;86.75;52.95;;;10.80;99.90;;;;;;6091107;23;88594;-72
2022/11/14 12:49:47;;;;;;;174.43;103.00;;;10.80;99.90;;;;;;6075766;23;88947;-72
2022/11/14 12:52:44;;;;;;;31.67;22.20;;;10.70;99.90;;;;;;6074690;23;90984;-72
2022/11/14 12:55:30;;;;;;;34.20;25.73;;;10.70;99.90;;;;;;6098037;23;88490;-72
2022/11/14 12:58:18;;;;;;;29.42;21.15;;;10.80;99.90;;;;;;6097924;23;88518;-72
2022/11/14 13:01:25;;;;;;;33.50;24.42;;;10.80;99.90;;;;;;6075958;23;88463;-72
2022/11/14 13:04:16;;;;;;;35.50;24.00;;;10.90;99.90;;;;;;6075928;23;88452;-72
2022/11/14 13:07:10;;;;;;;34.10;23.20;;;11.00;99.90;;;;;;6097630;23;88881;-72
2022/11/14 13:10:08;;;;;;;;;;;11.00;99.90;;;;;;6098050;23;88509;-72
2022/11/14 13:22:39;;;;;;;37.90;31.67;;;10.90;99.90;;;;;;6097932;23;88893;-72
2022/11/14 13:25:25;;;;;;;28.20;21.35;;;11.00;99.90;;;;;;6075880;23;88503;-72
2022/11/14 13:28:49;;;;;;;29.48;21.75;;;11.00;99.90;;;;;;6097909;23;88422;-72
2022/11/14 13:31:45;;;;;;;26.42;18.75;;;11.20;99.90;;;;;;6097731;23;88879;-72
2022/11/14 13:34:53;;;;;;;28.67;19.10;;;11.10;99.90;;;;;;6097977;23;88793;-72
2022/11/14 13:37:47;;;;;;;32.20;24.00;;;11.10;99.90;;;;;;6075636;23;88444;-72
2022/11/14 13:40:45;;;;;;;25.60;18.20;;;11.10;99.90;;;;;;6075885;23;88791;-72
2022/11/14 13:43:49;;;;;;;26.75;20.13;;;11.10;99.90;;;;;;6097657;23;88842;-72
2022/11/14 13:46:56;;;;;;;29.33;21.27;;;11.10;99.90;;;;;;6098025;23;89050;-72
2022/11/14 13:50:07;;;;;;;28.65;22.63;;;11.10;99.90;;;;;;6097703;23;88407;-71
2022/11/14 13:52:53;;;;;;;27.60;20.90;;;11.10;99.90;;;;;;6097487;23;88409;-72
2022/11/14 13:55:57;;;;;;;28.73;20.63;;;11.10;99.90;;;;;;6097507;23;88869;-72
2022/11/14 13:59:03;;;;;;;26.63;19.57;;;11.20;99.90;;;;;;6097734;23;88909;-72
2022/11/14 14:02:01;;;;;;;27.90;20.35;;;11.20;99.90;;;;;;6097278;23;88335;-72
2022/11/14 14:04:56;;;;;;;25.17;18.30;;;11.10;99.90;;;;;;6075639;23;88567;-72
2022/11/14 14:08:02;;;;;;;24.55;17.20;;;11.20;99.90;;;;;;6075645;23;88855;-72
2022/11/14 14:11:08;;;;;;;28.20;22.20;;;11.20;99.90;;;;;;6097501;23;88433;-72
2022/11/14 14:14:04;;;;;;;27.10;20.27;;;11.20;99.90;;;;;;6075314;23;88452;-72
2022/11/14 14:16:53;;;;;;;24.30;17.38;;;11.20;99.90;;;;;;6075300;23;88411;-72
2022/11/14 14:20:14;;;;;;;24.27;18.88;;;11.20;99.90;;;;;;6097199;23;88842;-72
2022/11/14 14:23:24;;;;;;;23.42;17.45;;;11.10;99.90;;;;;;6097161;23;88486;-73
2022/11/14 14:26:47;;;;;;;23.25;16.75;;;11.10;99.90;;;;;;6075218;23;88848;-72
2022/11/14 14:30:06;;;;;;;24.48;17.40;;;11.10;99.90;;;;;;6097515;23;88386;-72
2022/11/14 14:33:13;;;;;;;22.25;16.88;;;11.10;99.90;;;;;;6097011;23;88434;-72
2022/11/14 14:35:58;;;;;;;29.75;20.60;;;11.00;99.90;;;;;;6097055;23;88470;-72
2022/11/14 14:38:44;;;;;;;22.30;17.27;;;10.90;99.90;;;;;;6097179;23;88418;-72
2022/11/14 14:41:31;;;;;;;22.63;16.48;;;10.90;99.90;;;;;;6097236;23;88451;-71
2022/11/14 14:44:40;;;;;;;24.67;17.95;;;10.90;99.90;;;;;;6096885;23;88864;-72
2022/11/14 14:47:34;;;;;;;23.77;16.88;;;10.90;99.90;;;;;;6097190;23;88444;-72
2022/11/14 14:50:23;;;;;;;21.95;17.52;;;10.90;99.90;;;;;;6097295;23;88537;-72
2022/11/14 14:53:20;;;;;;;37.63;24.85;;;10.80;99.90;;;;;;6096840;23;88436;-72